Time;durP1;ratioP1;P1;durP2;ratioP2;P2;SDS_P1;SDS_P2;PMS_P1;PMS_P2;Temp;Humidity;BMP_temperature;BMP_pressure;BME280_temperature;BME280_humidity;BME280_pressure;Samples;Min_cycle;Max_cycle;Signal;HPM_P1;HPM_P2
2022/01/28 00:03:10;;;;;;;12.60;2.85;;;;;;;5.18;62.21;100957.16;10465106;28;20659;-67
2022/01/28 00:08:12;;;;;;;8.57;2.53;;;;;;;5.22;62.00;100967.44;10466054;28;20143;-67
2022/01/28 00:13:20;;;;;;;9.23;2.53;;;;;;;5.08;63.73;100984.19;10466104;28;20049;-67
2022/01/28 00:39:37;;;;;;;7.22;2.60;;;;;;;3.72;67.37;101022.84;10472161;28;20044;-67
2022/01/28 00:44:39;;;;;;;10.38;2.40;;;;;;;3.64;67.61;101035.03;10471203;28;20056;-67
2022/01/28 00:49:41;;;;;;;11.05;2.88;;;;;;;3.44;68.29;101050.78;10472217;28;20124;-67
2022/01/28 00:54:43;;;;;;;11.48;3.13;;;;;;;3.52;68.14;101055.84;10472656;28;20076;-67
2022/01/28 00:59:44;;;;;;;11.57;3.20;;;;;;;3.56;67.96;101060.97;10471722;28;20123;-68
2022/01/28 01:04:46;;;;;;;11.75;3.20;;;;;;;3.53;67.87;101070.50;10470589;28;20048;-67
2022/01/28 01:09:49;;;;;;;15.23;3.50;;;;;;;3.51;67.95;101085.19;10471808;28;20155;-67
2022/01/28 01:14:51;;;;;;;13.25;2.83;;;;;;;3.43;68.26;101076.69;10468839;28;20099;-67
2022/01/28 01:20:05;;;;;;;12.95;3.10;;;;;;;3.51;67.91;101082.63;10470664;28;20074;-67
2022/01/28 01:25:17;;;;;;;7.80;2.67;;;;;;;3.64;68.13;101085.00;10486305;28;20070;-67
2022/01/28 01:30:19;;;;;;;13.27;2.97;;;;;;;3.78;67.55;101070.16;10469474;28;20056;-67
2022/01/28 01:35:21;;;;;;;14.40;2.95;;;;;;;3.77;67.50;101068.47;10470170;28;20044;-67
2022/01/28 01:40:29;;;;;;;16.77;2.85;;;;;;;3.88;67.25;101085.59;10470370;28;20048;-67
2022/01/28 01:55:56;;;;;;;12.73;2.30;;;;;;;4.26;65.85;101088.47;10469297;28;20053;-66
2022/01/28 02:00:59;;;;;;;13.13;2.78;;;;;;;4.42;65.42;101074.38;10467782;28;20419;-67
2022/01/28 02:06:01;;;;;;;12.55;2.53;;;;;;;4.46;65.40;101089.84;10474355;28;20048;-67
2022/01/28 02:11:03;;;;;;;8.30;2.65;;;;;;;4.55;64.99;101089.72;10468794;28;20080;-66
2022/01/28 02:16:07;;;;;;;16.38;3.20;;;;;;;4.51;64.62;101116.56;10467418;28;20055;-66
2022/01/28 02:21:11;;;;;;;11.48;2.60;;;;;;;4.49;64.48;101127.81;10468082;28;20041;-67
2022/01/28 02:26:16;;;;;;;11.90;2.75;;;;;;;4.44;64.09;101104.56;10476265;28;20062;-67
2022/01/28 02:31:22;;;;;;;12.32;2.50;;;;;;;4.26;63.82;101112.63;10467703;28;20053;-66
2022/01/28 02:36:25;;;;;;;15.75;3.35;;;;;;;4.10;64.30;101105.97;10467502;28;20404;-67
2022/01/28 02:41:32;;;;;;;11.90;2.30;;;;;;;4.06;64.17;101113.78;10467622;28;20052;-67
2022/01/28 02:46:36;;;;;;;12.85;2.67;;;;;;;3.87;64.21;101120.97;10467389;28;20611;-67
2022/01/28 02:51:38;;;;;;;16.27;2.97;;;;;;;3.82;64.26;101122.75;10465986;28;20044;-67
2022/01/28 02:56:47;;;;;;;13.73;3.17;;;;;;;3.85;64.10;101138.25;10467612;28;20435;-67
2022/01/28 03:01:49;;;;;;;15.13;2.67;;;;;;;3.76;64.02;101125.41;10467929;28;20044;-67
2022/01/28 03:06:51;;;;;;;14.52;3.20;;;;;;;3.68;64.19;101141.00;10472843;28;20505;-67
2022/01/28 03:12:15;;;;;;;17.33;3.50;;;;;;;3.65;63.99;101151.41;10474275;28;20048;-67
2022/01/28 03:17:56;;;;;;;15.38;2.88;;;;;;;3.64;64.09;101151.44;10474155;28;21123;-67
2022/01/28 03:22:45;;;;;;;16.70;2.70;;;;;;;3.62;63.99;101166.13;10470893;28;20139;-67
2022/01/28 03:27:53;;;;;;;19.00;2.70;;;;;;;3.59;63.97;101171.31;10473969;28;20596;-66
2022/01/28 03:32:55;;;;;;;16.92;2.90;;;;;;;3.66;63.64;101180.72;10474551;28;20162;-66
2022/01/28 03:38:07;;;;;;;18.60;3.13;;;;;;;3.71;63.71;101194.44;10473323;28;20420;-67
2022/01/28 03:43:09;;;;;;;18.13;3.28;;;;;;;3.89;63.49;101202.00;10475125;28;20084;-67
2022/01/28 03:48:11;;;;;;;20.27;3.20;;;;;;;4.03;63.34;101210.47;10476318;28;20113;-67
2022/01/28 03:53:12;;;;;;;18.08;2.90;;;;;;;4.11;63.24;101238.88;10475406;28;20088;-67
2022/01/28 03:58:15;;;;;;;15.75;3.80;;;;;;;4.25;62.98;101245.56;10481677;28;20705;-67
2022/01/28 04:13:47;;;;;;;18.15;2.90;;;;;;;4.40;62.62;101247.09;10473390;28;20051;-67
2022/01/28 04:18:49;;;;;;;22.35;3.88;;;;;;;4.28;62.73;101257.59;10473772;28;20163;-67
2022/01/28 04:23:50;;;;;;;15.02;2.90;;;;;;;4.23;62.71;101257.66;10473481;28;20052;-67
2022/01/28 04:28:52;;;;;;;18.15;3.53;;;;;;;4.08;62.68;101270.81;10472359;28;20052;-67
2022/01/28 04:33:55;;;;;;;20.17;3.47;;;;;;;3.87;63.20;101278.81;10479526;28;20070;-67
2022/01/28 04:39:23;;;;;;;17.50;2.80;;;;;;;3.90;63.43;101290.88;10488444;28;20052;-67
2022/01/28 04:44:25;;;;;;;20.73;3.38;;;;;;;4.08;63.21;101312.22;10472743;28;20168;-67
2022/01/28 04:49:44;;;;;;;15.82;3.20;;;;;;;4.24;62.89;101318.09;10472519;28;20052;-67
2022/01/28 05:00:21;;;;;;;19.63;3.38;;;;;;;4.07;63.16;101322.63;10472744;28;20055;-67
2022/01/28 05:31:24;;;;;;;15.75;4.43;;;;;;;4.07;63.58;101364.88;10470529;28;20102;-67
2022/01/28 05:36:26;;;;;;;20.15;3.85;;;;;;;4.10;63.23;101372.63;10471008;28;20048;-67
2022/01/28 05:41:29;;;;;;;17.63;4.30;;;;;;;3.99;63.58;101379.63;10470479;28;20888;-67
2022/01/28 05:46:31;;;;;;;20.88;4.15;;;;;;;3.93;63.79;101373.63;10479851;28;20056;-67
2022/01/28 05:51:33;;;;;;;17.33;3.85;;;;;;;3.86;63.95;101381.47;10472844;28;20060;-66
2022/01/28 05:56:34;;;;;;;24.27;5.10;;;;;;;3.99;63.92;101386.53;10469921;28;20052;-67
2022/01/28 06:01:36;;;;;;;22.02;3.70;;;;;;;3.96;63.78;101395.19;10485305;28;20151;-66
2022/01/28 06:06:38;;;;;;;17.02;3.67;;;;;;;3.92;63.79;101398.69;10470098;28;20048;-66
2022/01/28 06:11:40;;;;;;;18.08;3.92;;;;;;;3.97;63.70;101399.47;10468887;28;20428;-67
2022/01/28 06:16:42;;;;;;;21.73;3.92;;;;;;;3.98;63.62;101416.75;10468706;28;20049;-67
2022/01/28 06:21:43;;;;;;;17.88;3.60;;;;;;;4.12;63.50;101422.66;10467259;28;20588;-66
2022/01/28 06:26:47;;;;;;;19.58;3.67;;;;;;;4.23;63.30;101418.19;10468338;28;20066;-67
2022/01/28 06:31:49;;;;;;;18.23;3.72;;;;;;;4.25;63.05;101434.59;10469442;28;20052;-67
2022/01/28 06:36:51;;;;;;;18.40;4.10;;;;;;;4.30;62.98;101456.13;10468744;28;20052;-67
2022/01/28 06:41:52;;;;;;;23.52;4.25;;;;;;;4.31;63.05;101463.00;10467944;28;20075;-66
2022/01/28 06:46:55;;;;;;;22.90;4.15;;;;;;;4.39;62.84;101458.59;10468788;28;20056;-67
2022/01/28 06:52:03;;;;;;;21.00;4.03;;;;;;;4.46;62.68;101468.03;10468204;28;20126;-66
2022/01/28 06:57:05;;;;;;;22.48;4.25;;;;;;;4.40;62.99;101473.28;10467623;28;20059;-67
2022/01/28 07:02:07;;;;;;;21.48;4.05;;;;;;;4.26;63.24;101462.22;10466538;28;20398;-67
2022/01/28 07:07:09;;;;;;;22.13;4.93;;;;;;;4.37;62.98;101475.91;10477927;28;20469;-66
2022/01/28 07:12:11;;;;;;;14.57;4.07;;;;;;;4.16;63.33;101489.06;10468059;28;20045;-66
2022/01/28 07:17:12;;;;;;;19.75;4.90;;;;;;;4.23;63.17;101480.34;10468131;28;20053;-67
2022/01/28 07:22:14;;;;;;;19.23;4.50;;;;;;;4.05;63.04;101493.47;10480017;28;20048;-67
2022/01/28 07:27:19;;;;;;;16.10;4.32;;;;;;;4.11;62.99;101497.75;10479944;28;20535;-67
2022/01/28 07:32:23;;;;;;;24.48;5.00;;;;;;;4.10;63.04;101512.41;10479668;28;20183;-67
2022/01/28 07:37:25;;;;;;;18.02;4.82;;;;;;;4.23;62.94;101508.84;10475032;28;20837;-67
2022/01/28 07:42:27;;;;;;;18.17;4.45;;;;;;;4.16;62.93;101520.13;10475874;28;20055;-67
2022/01/28 07:47:28;;;;;;;17.67;4.50;;;;;;;4.23;62.74;101518.34;10475563;28;20067;-66
2022/01/28 07:52:30;;;;;;;22.92;5.28;;;;;;;4.17;62.76;101513.22;10492898;28;20551;-67
2022/01/28 07:57:32;;;;;;;20.08;4.93;;;;;;;4.10;62.87;101519.31;10475124;28;20513;-67
2022/01/28 08:02:35;;;;;;;15.77;5.00;;;;;;;4.07;62.90;101512.44;10473944;28;20051;-66
2022/01/28 08:07:37;;;;;;;19.13;4.75;;;;;;;4.70;62.15;101501.47;10474708;28;20056;-66
2022/01/28 08:12:51;;;;;;;17.00;4.25;;;;;;;4.60;60.23;101514.53;10473974;28;20551;-67
2022/01/28 08:17:53;;;;;;;13.63;4.10;;;;;;;5.30;60.68;101512.84;10474438;28;20121;-67
2022/01/28 08:22:59;;;;;;;20.85;4.03;;;;;;;5.26;59.65;101512.91;10474068;28;20386;-68
2022/01/28 08:28:04;;;;;;;14.45;3.60;;;;;;;5.05;60.02;101531.31;10474194;28;20080;-68
2022/01/28 08:33:06;;;;;;;16.60;4.10;;;;;;;5.17;59.91;101550.19;10475267;28;20560;-67
2022/01/28 08:38:17;;;;;;;18.58;4.88;;;;;;;5.15;59.72;101545.88;10472834;28;20059;-67
2022/01/28 08:43:20;;;;;;;17.67;4.35;;;;;;;4.84;59.91;101554.91;10473850;28;20056;-67
2022/01/28 08:48:21;;;;;;;17.92;4.40;;;;;;;4.72;60.69;101572.28;10467210;28;20407;-67
2022/01/28 08:53:26;;;;;;;17.52;4.53;;;;;;;4.86;60.39;101573.88;10490859;28;20596;-67
2022/01/28 08:58:28;;;;;;;17.15;4.78;;;;;;;4.76;60.80;101580.03;10470977;28;20043;-67
2022/01/28 09:03:29;;;;;;;21.88;5.18;;;;;;;4.95;60.52;101584.13;10469808;28;20063;-67
2022/01/28 09:08:32;;;;;;;20.40;4.50;;;;;;;4.83;60.49;101582.53;10470313;28;20151;-67
2022/01/28 09:13:40;;;;;;;19.80;4.20;;;;;;;5.03;60.18;101583.19;10471011;28;20121;-67
2022/01/28 09:18:42;;;;;;;20.33;4.13;;;;;;;5.33;59.80;101602.75;10469586;28;20554;-67
2022/01/28 09:23:46;;;;;;;14.75;3.80;;;;;;;5.50;59.39;101603.38;10469729;28;20048;-67
2022/01/28 09:28:48;;;;;;;17.73;3.90;;;;;;;5.54;59.29;101607.66;10468206;28;20065;-67
2022/01/28 09:33:50;;;;;;;17.15;4.00;;;;;;;5.46;59.22;101610.34;10473328;28;20062;-67
2022/01/28 09:38:51;;;;;;;11.77;3.63;;;;;;;5.17;59.66;101603.78;10467765;28;20127;-67
2022/01/28 09:43:57;;;;;;;19.60;4.00;;;;;;;5.38;59.27;101611.31;10469135;28;20059;-67
2022/01/28 09:48:59;;;;;;;20.70;4.40;;;;;;;5.53;58.68;101611.97;10476244;28;20041;-67
2022/01/28 09:54:02;;;;;;;17.60;4.30;;;;;;;5.47;58.81;101627.63;10477938;28;20048;-67
2022/01/28 09:59:04;;;;;;;14.63;4.30;;;;;;;5.49;59.52;101635.41;10476196;28;20554;-67
2022/01/28 10:04:06;;;;;;;17.38;4.35;;;;;;;5.43;59.26;101630.31;10470159;28;20196;-67
2022/01/28 10:09:14;;;;;;;15.70;3.58;;;;;;;5.30;59.03;101633.91;10473292;28;20420;-67
2022/01/28 10:14:21;;;;;;;13.32;3.47;;;;;;;5.29;59.21;101627.84;10470377;28;20083;-67
2022/01/28 10:19:36;;;;;;;16.17;4.03;;;;;;;5.37;58.72;101645.94;10467630;28;20123;-67
2022/01/28 10:24:38;;;;;;;14.95;4.20;;;;;;;5.54;58.89;101641.38;10468058;28;20084;-66
2022/01/28 10:29:43;;;;;;;15.80;4.07;;;;;;;5.59;57.60;101637.03;10461092;28;20059;-67
2022/01/28 10:34:46;;;;;;;15.63;4.35;;;;;;;6.12;57.85;101637.13;10474989;28;20677;-67
2022/01/28 10:39:51;;;;;;;16.98;4.47;;;;;;;6.11;56.67;101638.03;10474861;28;20139;-67
2022/01/28 10:45:01;;;;;;;21.33;4.38;;;;;;;6.23;56.55;101644.78;10466024;28;20075;-67
2022/01/28 10:50:19;;;;;;;18.63;3.85;;;;;;;6.23;54.51;101632.66;10464817;28;20051;-66
2022/01/28 10:55:21;;;;;;;21.48;4.40;;;;;;;6.27;55.38;101636.94;10469010;28;20048;-67
2022/01/28 11:00:27;;;;;;;19.02;3.85;;;;;;;6.26;54.60;101648.25;10471035;28;20162;-67
2022/01/28 11:05:31;;;;;;;21.80;4.22;;;;;;;6.25;54.34;101654.31;10475272;28;20055;-67
2022/01/28 11:10:34;;;;;;;22.60;4.18;;;;;;;6.21;55.05;101637.00;10465174;28;20762;-67
2022/01/28 11:15:36;;;;;;;20.83;4.50;;;;;;;6.14;54.59;101639.72;10467571;28;20489;-67
2022/01/28 11:20:45;;;;;;;19.23;4.43;;;;;;;6.25;52.37;101633.53;10476889;28;20076;-67
2022/01/28 11:26:06;;;;;;;20.40;4.30;;;;;;;6.16;52.98;101631.03;10464815;28;20623;-67
2022/01/28 11:31:09;;;;;;;16.50;3.47;;;;;;;6.16;53.31;101633.66;10468333;28;20080;-67
2022/01/28 11:36:12;;;;;;;18.27;3.55;;;;;;;6.38;52.88;101633.31;10477182;28;20045;-67
2022/01/28 11:41:20;;;;;;;17.83;3.92;;;;;;;6.47;53.01;101641.84;10476364;28;20738;-67
2022/01/28 11:46:28;;;;;;;27.75;4.95;;;;;;;6.47;52.02;101643.59;10463670;28;20084;-67
2022/01/28 11:51:32;;;;;;;20.27;3.70;;;;;;;6.63;52.71;101632.06;10471225;28;20058;-68
2022/01/28 11:57:01;;;;;;;24.58;4.20;;;;;;;6.54;52.59;101640.88;10474229;28;20184;-66
2022/01/28 12:02:02;;;;;;;20.05;3.50;;;;;;;6.30;52.74;101626.53;10473075;28;20152;-67
2022/01/28 12:07:06;;;;;;;19.08;3.47;;;;;;;6.35;52.65;101640.28;10469710;28;20575;-67
2022/01/28 12:12:10;;;;;;;19.13;3.92;;;;;;;6.31;52.66;101649.00;10469392;28;21141;-67
2022/01/28 12:17:33;;;;;;;17.10;3.83;;;;;;;6.34;52.34;101640.31;10476731;28;20048;-67
2022/01/28 12:23:02;;;;;;;19.42;3.40;;;;;;;6.48;51.85;101629.69;10492868;28;20044;-67
2022/01/28 12:28:21;;;;;;;14.68;3.53;;;;;;;6.40;52.62;101626.38;10487651;28;20620;-67
2022/01/28 12:33:24;;;;;;;20.13;4.15;;;;;;;6.58;52.94;101631.28;10487412;28;20483;-67
2022/01/28 12:38:30;;;;;;;19.30;3.65;;;;;;;6.69;53.16;101622.44;10488933;28;20050;-67
2022/01/28 12:43:39;;;;;;;21.48;3.55;;;;;;;6.58;53.19;101620.88;10485404;28;20048;-67
2022/01/28 12:48:48;;;;;;;15.23;3.63;;;;;;;6.72;53.06;101626.69;10492371;28;20132;-67
2022/01/28 12:53:55;;;;;;;22.50;3.67;;;;;;;6.62;53.27;101617.34;10488293;28;20040;-67
2022/01/28 12:58:57;;;;;;;19.40;3.55;;;;;;;6.26;54.26;101606.66;10475778;28;20094;-67
2022/01/28 13:04:07;;;;;;;18.83;3.78;;;;;;;6.27;54.28;101603.19;10491081;28;20534;-67
2022/01/28 13:09:18;;;;;;;22.95;4.18;;;;;;;6.16;54.05;101612.00;10473049;28;20045;-67
2022/01/28 13:14:39;;;;;;;18.47;3.70;;;;;;;6.47;53.98;101609.81;10471191;28;20151;-67
2022/01/28 13:19:41;;;;;;;16.92;3.60;;;;;;;6.98;53.40;101595.88;10472184;28;20047;-67
2022/01/28 13:24:43;;;;;;;16.92;3.45;;;;;;;7.40;52.45;101586.38;10468139;28;20048;-67
2022/01/28 13:29:49;;;;;;;17.75;3.20;;;;;;;7.61;51.40;101593.75;10472284;28;20149;-67
2022/01/28 13:34:57;;;;;;;12.57;3.75;;;;;;;7.56;50.97;101599.06;10472875;28;20452;-67
2022/01/28 13:39:59;;;;;;;18.25;3.38;;;;;;;7.28;51.04;101603.13;10472058;28;20052;-67
2022/01/28 13:45:05;;;;;;;13.07;2.88;;;;;;;7.31;50.56;101597.84;10471512;28;20147;-67
2022/01/28 13:50:07;;;;;;;13.05;2.92;;;;;;;7.47;50.77;101588.00;10469694;28;21832;-67
2022/01/28 13:55:31;;;;;;;16.52;3.75;;;;;;;7.66;49.30;101579.75;10451755;28;20546;-67
2022/01/28 14:00:43;;;;;;;13.10;2.90;;;;;;;7.72;47.80;101582.22;10469536;28;20040;-67
2022/01/28 14:05:48;;;;;;;11.90;2.65;;;;;;;7.50;47.34;101567.94;10472966;28;20048;-67
2022/01/28 14:10:50;;;;;;;13.52;2.90;;;;;;;7.16;47.98;101564.34;10468781;28;20088;-67
2022/01/28 14:16:15;;;;;;;10.02;2.70;;;;;;;7.06;48.49;101560.19;10485329;28;20560;-66
2022/01/28 14:21:14;;;;;;;13.25;2.90;;;;;;;6.93;49.03;101569.97;10468793;28;20186;-67
2022/01/28 14:26:17;;;;;;;13.40;3.10;;;;;;;6.63;49.26;101575.75;10468927;28;20052;-67
2022/01/28 14:31:18;;;;;;;16.55;3.05;;;;;;;6.65;49.86;101586.09;10468288;28;20049;-67
2022/01/28 14:36:20;;;;;;;17.17;3.47;;;;;;;6.59;50.02;101583.59;10467079;28;20193;-68
2022/01/28 14:41:42;;;;;;;18.33;3.28;;;;;;;6.58;49.90;101577.53;10469838;28;20133;-68
2022/01/28 14:46:44;;;;;;;11.68;2.78;;;;;;;6.61;49.40;101574.03;10469218;28;20044;-68
2022/01/28 14:51:52;;;;;;;13.10;2.80;;;;;;;6.98;48.86;101590.66;10468646;28;20061;-68
2022/01/28 14:56:55;;;;;;;13.05;2.80;;;;;;;7.24;48.35;101591.06;10468738;28;20044;-67
2022/01/28 15:01:56;;;;;;;9.00;2.22;;;;;;;7.12;48.07;101592.13;10469152;28;20045;-67
2022/01/28 15:06:59;;;;;;;11.85;2.65;;;;;;;7.10;48.73;101590.47;10468638;28;20053;-67
2022/01/28 15:12:02;;;;;;;11.70;2.55;;;;;;;7.12;48.50;101594.72;10468786;28;20145;-67
2022/01/28 15:17:04;;;;;;;11.48;2.38;;;;;;;7.18;48.04;101601.59;10468787;28;20445;-66
2022/01/28 15:22:06;;;;;;;10.23;2.33;;;;;;;7.23;48.34;101598.88;10467914;28;20080;-67
2022/01/28 15:27:09;;;;;;;15.80;3.40;;;;;;;7.15;48.48;101601.63;10467433;28;20148;-66
2022/01/28 15:37:44;;;;;;;16.52;3.20;;;;;;;6.97;48.08;101607.19;10485286;28;20470;-66
2022/01/28 15:42:46;;;;;;;11.30;2.60;;;;;;;6.99;48.61;101611.47;10468260;28;20094;-66
2022/01/28 15:47:48;;;;;;;14.25;3.13;;;;;;;6.88;48.85;101613.41;10467911;28;20056;-66
2022/01/28 15:52:50;;;;;;;11.63;2.80;;;;;;;6.63;48.96;101616.47;10475969;28;20079;-66
2022/01/28 15:57:52;;;;;;;19.27;3.83;;;;;;;6.38;49.46;101612.53;10475854;28;20044;-67
2022/01/28 16:02:54;;;;;;;12.15;2.85;;;;;;;6.13;49.98;101615.50;10475563;28;20052;-66
2022/01/28 16:07:56;;;;;;;10.65;2.60;;;;;;;5.85;50.67;101629.75;10474376;28;20052;-67
2022/01/28 16:17:59;;;;;;;14.38;2.78;;;;;;;5.31;52.22;101646.84;10474849;28;20053;-66
2022/01/28 16:23:01;;;;;;;17.67;3.15;;;;;;;5.04;52.62;101646.28;10474685;28;20159;-66
2022/01/28 16:28:03;;;;;;;14.43;2.70;;;;;;;4.89;53.85;101631.72;10472558;28;20066;-64
2022/01/28 16:33:04;;;;;;;12.23;2.65;;;;;;;4.82;53.58;101634.41;10472545;28;20076;-66
2022/01/28 16:38:06;;;;;;;12.93;2.83;;;;;;;4.73;53.42;101645.72;10472446;28;20420;-66
2022/01/28 16:43:15;;;;;;;14.45;3.33;;;;;;;4.63;54.14;101644.94;10472991;28;20052;-65
2022/01/28 16:48:17;;;;;;;14.68;4.70;;;;;;;4.45;54.79;101650.28;10472491;28;20156;-65
2022/01/28 16:53:19;;;;;;;12.32;3.88;;;;;;;4.32;55.13;101638.25;10473543;28;20516;-65
2022/01/28 16:58:21;;;;;;;13.63;3.40;;;;;;;4.21;55.71;101640.06;10474076;28;20054;-65
2022/01/28 17:03:25;;;;;;;14.82;3.60;;;;;;;4.21;55.94;101641.81;10472253;28;20131;-65
2022/01/28 17:08:27;;;;;;;13.02;4.25;;;;;;;4.18;56.10;101639.22;10493354;28;20049;-65
2022/01/28 17:13:28;;;;;;;18.27;3.50;;;;;;;4.10;56.30;101641.88;10472589;28;20157;-66
2022/01/28 17:18:30;;;;;;;16.20;3.40;;;;;;;4.09;56.67;101647.06;10471538;28;20051;-65
2022/01/28 17:23:34;;;;;;;16.10;4.05;;;;;;;4.14;56.67;101653.06;10484695;28;20044;-65
2022/01/28 17:28:35;;;;;;;12.50;3.30;;;;;;;4.09;56.79;101650.50;10469479;28;20209;-66
2022/01/28 17:33:37;;;;;;;14.43;3.80;;;;;;;3.96;56.93;101640.22;10469399;28;20131;-65
2022/01/28 17:38:39;;;;;;;11.07;3.53;;;;;;;3.93;57.71;101641.09;10469180;28;20098;-66
2022/01/28 17:43:41;;;;;;;12.60;3.38;;;;;;;3.88;57.86;101643.69;10466033;28;20051;-66
2022/01/28 17:48:43;;;;;;;14.60;4.63;;;;;;;3.84;57.37;101642.00;10468955;28;20054;-67
2022/01/28 17:53:45;;;;;;;18.67;5.38;;;;;;;3.77;57.88;101647.19;10468524;28;20400;-67
2022/01/28 17:58:47;;;;;;;19.60;9.63;;;;;;;3.72;57.83;101646.38;10467814;28;20135;-67
2022/01/28 18:03:49;;;;;;;17.40;7.78;;;;;;;3.67;57.85;101648.97;10468965;28;21115;-67
2022/01/28 18:08:51;;;;;;;17.90;7.90;;;;;;;3.62;58.28;101642.94;10469414;28;20056;-67
2022/01/28 18:13:53;;;;;;;16.63;6.55;;;;;;;3.62;58.37;101639.50;10464639;28;20088;-67
2022/01/28 18:18:55;;;;;;;13.82;5.10;;;;;;;3.58;58.52;101630.03;10463943;28;20505;-66
2022/01/28 18:23:57;;;;;;;13.88;4.85;;;;;;;3.55;58.84;101630.03;10474846;28;20050;-67
2022/01/28 18:28:59;;;;;;;12.75;4.72;;;;;;;3.51;58.78;101636.97;10467000;28;20062;-66
2022/01/28 18:34:01;;;;;;;16.33;5.28;;;;;;;3.55;58.96;101622.28;10465964;28;20074;-67
2022/01/28 18:39:03;;;;;;;14.15;5.20;;;;;;;3.52;58.80;101622.28;10465736;28;20511;-66
2022/01/28 18:44:15;;;;;;;14.63;5.30;;;;;;;3.52;59.10;101627.47;10467345;28;20139;-67
2022/01/28 18:49:17;;;;;;;29.27;6.78;;;;;;;3.45;59.19;101618.03;10471186;28;20527;-67
2022/01/28 18:54:18;;;;;;;21.92;9.30;;;;;;;3.39;59.38;101615.47;10466345;28;20086;-67
2022/01/28 18:59:20;;;;;;;24.17;11.90;;;;;;;3.41;59.27;101605.97;10465248;28;20049;-67
2022/01/28 19:04:25;;;;;;;23.33;9.65;;;;;;;3.47;59.82;101603.34;10466126;28;20155;-67
2022/01/28 19:09:26;;;;;;;21.55;6.80;;;;;;;3.47;59.39;101600.78;10465381;28;20048;-66
2022/01/28 19:14:28;;;;;;;21.80;7.13;;;;;;;3.48;59.62;101616.28;10463257;28;20049;-66
2022/01/28 19:19:30;;;;;;;19.25;6.03;;;;;;;3.39;59.68;101610.28;10463037;28;20377;-67
2022/01/28 19:24:31;;;;;;;14.88;5.20;;;;;;;3.30;59.88;101621.50;10466289;28;20052;-66
2022/01/28 19:29:33;;;;;;;21.95;10.30;;;;;;;3.21;60.22;101616.38;10475463;28;20888;-66
2022/01/28 19:34:36;;;;;;;13.70;5.65;;;;;;;3.22;60.17;101620.69;10474397;28;20524;-66
2022/01/28 19:39:38;;;;;;;14.35;5.18;;;;;;;3.16;60.06;101605.19;10474650;28;20060;-66
2022/01/28 19:44:41;;;;;;;13.98;5.28;;;;;;;3.15;60.28;101613.81;10473082;28;20464;-66
2022/01/28 19:49:44;;;;;;;14.48;5.00;;;;;;;3.13;60.35;101604.34;10473700;28;20047;-67
2022/01/28 19:54:46;;;;;;;17.15;5.40;;;;;;;3.18;60.73;101603.47;10473225;28;20060;-66
2022/01/28 19:59:48;;;;;;;16.20;5.20;;;;;;;3.22;60.42;101600.00;10471893;28;20061;-67
2022/01/28 20:04:50;;;;;;;18.42;7.50;;;;;;;3.21;61.13;101594.84;10471914;28;20045;-66
2022/01/28 20:09:58;;;;;;;13.35;5.97;;;;;;;3.30;61.86;101594.78;10472408;28;20063;-66
2022/01/28 20:15:00;;;;;;;18.02;7.63;;;;;;;3.37;61.42;101581.84;10471132;28;20127;-66
2022/01/28 20:20:02;;;;;;;17.20;7.40;;;;;;;3.38;62.16;101582.69;10472403;28;20049;-67
2022/01/28 20:25:04;;;;;;;15.73;7.15;;;;;;;3.41;62.05;101574.94;10471643;28;20048;-66
2022/01/28 20:30:07;;;;;;;17.98;7.10;;;;;;;3.51;62.18;101584.38;10469946;28;20056;-66
2022/01/28 20:35:11;;;;;;;13.52;7.00;;;;;;;3.57;62.54;101568.81;10472002;28;20153;-66
2022/01/28 20:40:13;;;;;;;17.55;8.10;;;;;;;3.64;62.46;101573.09;10471830;28;20135;-67
2022/01/28 20:45:16;;;;;;;29.92;14.40;;;;;;;3.60;62.97;101586.94;10464262;28;20051;-66
2022/01/28 20:50:19;;;;;;;15.65;8.32;;;;;;;3.61;63.27;101581.72;10469941;28;20321;-67
2022/01/28 20:55:23;;;;;;;16.52;8.18;;;;;;;3.62;63.56;101567.91;10480064;28;20054;-67
2022/01/28 21:00:25;;;;;;;13.98;7.88;;;;;;;3.72;63.14;101581.69;10479316;28;20059;-66
2022/01/28 21:05:26;;;;;;;16.05;8.65;;;;;;;3.66;63.40;101567.03;10474471;28;20056;-66
2022/01/28 21:10:30;;;;;;;22.25;12.35;;;;;;;3.79;63.49;101544.53;10469490;28;20045;-66
2022/01/28 21:15:33;;;;;;;19.15;12.25;;;;;;;3.73;63.58;101537.69;10472143;28;20045;-66
2022/01/28 21:20:35;;;;;;;19.48;10.82;;;;;;;3.74;63.68;101544.56;10468829;28;20040;-67
2022/01/28 21:25:37;;;;;;;22.83;11.55;;;;;;;3.71;63.86;101539.41;10469682;28;20175;-67
2022/01/28 21:30:39;;;;;;;18.10;10.18;;;;;;;3.70;63.92;101547.19;10468710;28;20060;-68
2022/01/28 21:35:41;;;;;;;21.08;12.30;;;;;;;3.75;64.00;101538.53;10470913;28;20151;-67
2022/01/28 21:40:43;;;;;;;19.33;12.40;;;;;;;3.69;64.18;101525.63;10466788;28;20058;-67
2022/01/28 21:45:46;;;;;;;15.32;9.05;;;;;;;3.75;64.06;101519.53;10467740;28;21078;-67
2022/01/28 21:50:50;;;;;;;15.75;9.77;;;;;;;3.76;64.03;101516.94;10468627;28;20053;-66
2022/01/28 21:55:53;;;;;;;15.32;9.05;;;;;;;3.81;64.14;101512.59;10468884;28;20048;-66
2022/01/28 22:00:55;;;;;;;23.88;14.98;;;;;;;3.96;63.99;101508.22;10466779;28;20121;-66
2022/01/28 22:05:58;;;;;;;16.92;10.95;;;;;;;4.05;63.92;101514.16;10464891;28;20398;-67
2022/01/28 22:11:00;;;;;;;19.70;11.35;;;;;;;4.19;63.49;101499.38;10466307;28;20173;-67
2022/01/28 22:16:04;;;;;;;19.00;10.45;;;;;;;4.20;63.50;101495.94;10464917;28;20126;-67
2022/01/28 22:21:06;;;;;;;16.42;11.25;;;;;;;4.32;63.30;101502.72;10475488;28;20501;-67
2022/01/28 22:26:09;;;;;;;15.30;9.98;;;;;;;4.33;63.11;101528.59;10465790;28;20048;-67
2022/01/28 22:31:11;;;;;;;19.27;8.70;;;;;;;4.28;63.50;101532.97;10467651;28;20603;-67
2022/01/28 22:36:16;;;;;;;15.57;8.57;;;;;;;4.34;63.51;101530.34;10466245;28;20048;-66
2022/01/28 22:41:18;;;;;;;14.77;8.70;;;;;;;4.26;63.57;101528.69;10463426;28;20049;-66
2022/01/28 22:46:20;;;;;;;12.23;7.97;;;;;;;4.28;63.61;101527.78;10463535;28;20052;-67
2022/01/28 22:51:23;;;;;;;13.18;6.82;;;;;;;4.26;63.49;101519.19;10462820;28;20064;-67
2022/01/28 22:56:28;;;;;;;13.02;6.85;;;;;;;4.23;63.69;101506.25;10490710;28;20423;-66
2022/01/28 23:01:30;;;;;;;12.60;6.70;;;;;;;4.14;63.90;101498.56;10461296;28;20052;-66
2022/01/28 23:06:39;;;;;;;12.52;6.40;;;;;;;4.23;63.68;101490.72;10460365;28;20049;-67
2022/01/28 23:11:43;;;;;;;11.77;6.68;;;;;;;4.10;63.94;101465.81;10457378;28;20045;-67
2022/01/28 23:16:44;;;;;;;10.48;6.35;;;;;;;4.23;63.70;101459.63;10461539;28;20163;-67
2022/01/28 23:21:46;;;;;;;12.45;6.50;;;;;;;4.37;63.19;101470.72;10462773;28;20135;-67
2022/01/28 23:26:48;;;;;;;12.25;6.10;;;;;;;4.30;63.42;101447.50;10461635;28;20058;-67
2022/01/28 23:31:50;;;;;;;10.30;5.90;;;;;;;4.36;63.29;101411.16;10461088;28;20067;-66
2022/01/28 23:36:51;;;;;;;10.40;6.10;;;;;;;4.49;62.91;101405.84;10460225;28;20151;-66
2022/01/28 23:41:54;;;;;;;11.60;5.78;;;;;;;4.52;63.00;101407.53;10462535;28;20152;-66
2022/01/28 23:46:56;;;;;;;13.70;7.40;;;;;;;4.47;63.17;101409.31;10474631;28;20055;-67
2022/01/28 23:51:58;;;;;;;13.85;8.48;;;;;;;4.40;63.14;101405.06;10461000;28;20090;-66
2022/01/28 23:57:00;;;;;;;12.70;7.38;;;;;;;4.44;63.24;101394.66;10451517;28;20139;-66
